Time;durP1;ratioP1;P1;durP2;ratioP2;P2;SDS_P1;SDS_P2;PMS_P1;PMS_P2;Temp;Humidity;BMP_temperature;BMP_pressure;BME280_temperature;BME280_humidity;BME280_pressure;Samples;Min_cycle;Max_cycle;Signal;HPM_P1;HPM_P2
2023/09/17 00:00:11;;;;;;;228.55;19.45;;;;;;;;;;4973108;28;20129;-73
2023/09/17 00:02:37;;;;;;;273.17;20.92;;;;;;;;;;4971835;28;20122;-72
2023/09/17 00:05:03;;;;;;;15.00;12.65;;;;;;;;;;4971838;28;20158;-74
2023/09/17 00:07:30;;;;;;;89.45;16.60;;;;;;;;;;4955816;28;20407;-74
2023/09/17 00:09:56;;;;;;;17.70;12.90;;;;;;;;;;4972945;28;20207;-74
2023/09/17 00:12:22;;;;;;;16.63;12.88;;;;;;;;;;4973196;28;20503;-75
2023/09/17 00:14:48;;;;;;;22.80;14.75;;;;;;;;;;4972877;28;20498;-75
2023/09/17 00:17:14;;;;;;;19.02;14.68;;;;;;;;;;4973219;28;20042;-74
2023/09/17 00:19:40;;;;;;;167.45;21.30;;;;;;;;;;4955674;28;20109;-75
2023/09/17 00:22:09;;;;;;;18.55;14.02;;;;;;;;;;4955411;28;20078;-74
2023/09/17 00:24:35;;;;;;;24.38;13.95;;;;;;;;;;4955565;28;20427;-77
2023/09/17 00:27:01;;;;;;;26.40;15.30;;;;;;;;;;4955658;28;20045;-74
2023/09/17 00:29:27;;;;;;;21.30;14.93;;;;;;;;;;4955409;28;20085;-75
2023/09/17 00:31:54;;;;;;;22.50;15.57;;;;;;;;;;4972562;28;20042;-75
2023/09/17 00:34:20;;;;;;;45.85;17.88;;;;;;;;;;4955585;28;20057;-74
2023/09/17 00:36:46;;;;;;;53.17;17.42;;;;;;;;;;4955807;28;20047;-76
2023/09/17 00:39:12;;;;;;;31.27;16.00;;;;;;;;;;4972023;28;20113;-75
2023/09/17 00:41:38;;;;;;;29.88;14.85;;;;;;;;;;4953966;28;20085;-74
2023/09/17 00:44:04;;;;;;;44.22;15.88;;;;;;;;;;4971004;28;20569;-74
2023/09/17 00:46:31;;;;;;;153.93;19.52;;;;;;;;;;4932511;28;20042;-74
2023/09/17 00:48:58;;;;;;;22.10;17.13;;;;;;;;;;4971151;28;20177;-74
2023/09/17 00:51:25;;;;;;;17.50;13.93;;;;;;;;;;4945954;28;20058;-74
2023/09/17 00:53:51;;;;;;;16.30;13.30;;;;;;;;;;4953414;28;20054;-76
2023/09/17 00:56:18;;;;;;;19.38;14.30;;;;;;;;;;4932455;28;20047;-74
2023/09/17 00:58:44;;;;;;;20.73;15.48;;;;;;;;;;4953778;28;20049;-74
2023/09/17 01:01:13;;;;;;;50.03;16.38;;;;;;;;;;4925758;28;20414;-76
2023/09/17 01:03:39;;;;;;;58.05;16.65;;;;;;;;;;4970520;28;20446;-74
2023/09/17 01:06:06;;;;;;;100.53;18.42;;;;;;;;;;4953690;28;20043;-73
2023/09/17 01:08:32;;;;;;;85.18;20.05;;;;;;;;;;4971121;28;20483;-74
2023/09/17 01:10:58;;;;;;;152.55;20.30;;;;;;;;;;4953574;28;20082;-74
2023/09/17 01:13:24;;;;;;;69.30;18.40;;;;;;;;;;4969669;28;20039;-75
2023/09/17 01:15:51;;;;;;;121.93;19.30;;;;;;;;;;4953206;28;20518;-74
2023/09/17 01:18:21;;;;;;;57.25;15.27;;;;;;;;;;4970756;28;20074;-74
2023/09/17 01:20:52;;;;;;;84.15;18.10;;;;;;;;;;4970580;28;20145;-74
2023/09/17 01:23:41;;;;;;;383.50;30.67;;;;;;;;;;4969743;28;20051;-74
2023/09/17 01:26:08;;;;;;;185.25;23.02;;;;;;;;;;4967745;28;20279;-74
2023/09/17 01:28:34;;;;;;;168.77;23.02;;;;;;;;;;4984216;28;20743;-75
2023/09/17 01:31:00;;;;;;;92.40;19.00;;;;;;;;;;4970733;28;20119;-72
2023/09/17 01:33:28;;;;;;;35.05;17.40;;;;;;;;;;4953723;28;20043;-74
2023/09/17 01:35:57;;;;;;;22.50;15.98;;;;;;;;;;4985642;28;20057;-73
2023/09/17 01:38:25;;;;;;;21.15;14.48;;;;;;;;;;4970719;28;20616;-73
2023/09/17 01:40:52;;;;;;;17.00;14.43;;;;;;;;;;4969401;28;20510;-74
2023/09/17 01:43:21;;;;;;;22.13;14.85;;;;;;;;;;4985729;28;20069;-74
2023/09/17 01:45:46;;;;;;;18.13;14.15;;;;;;;;;;4970577;28;20418;-74
2023/09/17 01:48:13;;;;;;;19.20;14.50;;;;;;;;;;4957426;28;20122;-74
2023/09/17 01:50:38;;;;;;;19.00;15.40;;;;;;;;;;4959689;28;20502;-73
2023/09/17 01:53:04;;;;;;;17.38;15.32;;;;;;;;;;4991587;28;20057;-74
2023/09/17 01:55:31;;;;;;;20.27;16.05;;;;;;;;;;4966515;28;20078;-74
2023/09/17 01:57:57;;;;;;;22.10;14.73;;;;;;;;;;4957075;28;20050;-74
2023/09/17 02:00:24;;;;;;;19.20;14.73;;;;;;;;;;4956464;28;20191;-75
2023/09/17 02:02:51;;;;;;;18.35;14.20;;;;;;;;;;4940480;28;20058;-74
2023/09/17 02:05:20;;;;;;;56.28;21.52;;;;;;;;;;4972715;28;20058;-73
2023/09/17 02:07:47;;;;;;;21.73;15.32;;;;;;;;;;4971119;28;20035;-74
2023/09/17 02:10:13;;;;;;;25.17;16.80;;;;;;;;;;4969586;28;20062;-73
2023/09/17 02:12:41;;;;;;;86.53;18.38;;;;;;;;;;4937458;28;20186;-73
2023/09/17 02:15:09;;;;;;;17.08;14.43;;;;;;;;;;4936880;28;20072;-74
2023/09/17 02:17:35;;;;;;;95.47;17.15;;;;;;;;;;4953214;28;20038;-73
2023/09/17 02:20:08;;;;;;;92.28;14.02;;;;;;;;;;4953361;28;20046;-71
2023/09/17 02:22:34;;;;;;;57.38;14.93;;;;;;;;;;4970160;28;20110;-74
2023/09/17 02:25:02;;;;;;;24.65;16.67;;;;;;;;;;4970144;28;20046;-73
2023/09/17 02:27:30;;;;;;;246.75;26.95;;;;;;;;;;4970634;28;20412;-73
2023/09/17 02:29:56;;;;;;;506.67;33.35;;;;;;;;;;4937041;28;20050;-74
2023/09/17 02:32:22;;;;;;;36.80;19.02;;;;;;;;;;4953614;28;20125;-75
2023/09/17 02:34:49;;;;;;;22.35;16.20;;;;;;;;;;4970229;28;20054;-75
2023/09/17 02:37:15;;;;;;;22.25;16.60;;;;;;;;;;4953181;28;20094;-74
2023/09/17 02:39:41;;;;;;;23.30;16.67;;;;;;;;;;4936670;28;20514;-74
2023/09/17 02:42:07;;;;;;;18.13;16.08;;;;;;;;;;4970436;28;20086;-74
2023/09/17 02:44:34;;;;;;;29.00;17.92;;;;;;;;;;4953249;28;20047;-74
2023/09/17 02:47:02;;;;;;;23.27;16.55;;;;;;;;;;4952307;28;20062;-74
2023/09/17 02:49:29;;;;;;;22.20;16.17;;;;;;;;;;4952590;28;20043;-75
2023/09/17 02:51:55;;;;;;;28.92;17.15;;;;;;;;;;4970067;28;20041;-75
2023/09/17 02:54:21;;;;;;;23.52;16.80;;;;;;;;;;4936631;28;20051;-74
2023/09/17 02:56:47;;;;;;;23.70;16.95;;;;;;;;;;4920824;28;20039;-74
2023/09/17 02:59:13;;;;;;;20.55;16.35;;;;;;;;;;4955979;28;20507;-74
2023/09/17 03:01:40;;;;;;;41.10;16.17;;;;;;;;;;4956447;28;20519;-75
2023/09/17 03:04:06;;;;;;;28.67;16.40;;;;;;;;;;4956097;28;20046;-74
2023/09/17 03:06:36;;;;;;;26.25;14.70;;;;;;;;;;4974176;28;20070;-75
2023/09/17 03:09:09;;;;;;;131.90;19.60;;;;;;;;;;4956039;28;20539;-75
2023/09/17 03:11:36;;;;;;;24.45;16.98;;;;;;;;;;4973773;28;20058;-75
2023/09/17 03:14:02;;;;;;;30.70;16.27;;;;;;;;;;4956341;28;20525;-75
2023/09/17 03:16:31;;;;;;;47.50;20.92;;;;;;;;;;4940661;28;20042;-75
2023/09/17 03:18:57;;;;;;;27.50;20.30;;;;;;;;;;4972081;28;20043;-74
2023/09/17 03:21:23;;;;;;;21.65;17.92;;;;;;;;;;4973446;28;20545;-76
2023/09/17 03:23:51;;;;;;;24.88;17.55;;;;;;;;;;4973132;28;20050;-76
2023/09/17 03:26:18;;;;;;;20.23;16.90;;;;;;;;;;4956140;28;20086;-73
2023/09/17 03:28:45;;;;;;;22.05;17.48;;;;;;;;;;4955981;28;20047;-75
2023/09/17 03:31:11;;;;;;;20.88;16.40;;;;;;;;;;4940288;28;20105;-75
2023/09/17 03:33:38;;;;;;;20.98;16.80;;;;;;;;;;4955883;28;20054;-75
2023/09/17 03:36:04;;;;;;;26.30;17.60;;;;;;;;;;4955696;28;20038;-74
2023/09/17 03:38:31;;;;;;;22.48;18.35;;;;;;;;;;4973025;28;20046;-75
2023/09/17 03:40:59;;;;;;;22.50;18.35;;;;;;;;;;4939394;28;20462;-75
2023/09/17 03:43:27;;;;;;;25.63;17.58;;;;;;;;;;4955610;28;20047;-74
2023/09/17 03:45:54;;;;;;;17.55;15.80;;;;;;;;;;4955828;28;20053;-75
2023/09/17 03:48:21;;;;;;;12.70;11.68;;;;;;;;;;4957459;28;20078;-74
2023/09/17 03:50:47;;;;;;;11.60;10.52;;;;;;;;;;4942837;28;20050;-74
2023/09/17 03:53:14;;;;;;;10.65;9.85;;;;;;;;;;4975637;28;20082;-75
2023/09/17 03:55:40;;;;;;;10.65;9.85;;;;;;;;;;4939616;28;20057;-74
2023/09/17 03:58:08;;;;;;;11.35;10.35;;;;;;;;;;4971034;28;20039;-75
2023/09/17 04:00:40;;;;;;;11.35;10.23;;;;;;;;;;4971211;28;20047;-74
2023/09/17 04:03:08;;;;;;;12.32;11.10;;;;;;;;;;4938617;28;20070;-74
2023/09/17 04:05:34;;;;;;;14.75;12.32;;;;;;;;;;4957751;28;20723;-73
2023/09/17 04:08:03;;;;;;;11.77;10.27;;;;;;;;;;4952858;28;20681;-72
2023/09/17 04:10:30;;;;;;;13.35;10.57;;;;;;;;;;4952775;28;20054;-73
2023/09/17 04:12:56;;;;;;;9.55;8.73;;;;;;;;;;4954254;28;20047;-73
2023/09/17 04:15:22;;;;;;;9.30;8.52;;;;;;;;;;4938409;28;20049;-73
2023/09/17 04:17:48;;;;;;;9.68;8.88;;;;;;;;;;4971348;28;20043;-73
2023/09/17 04:20:17;;;;;;;9.18;8.45;;;;;;;;;;4954245;28;20046;-74
2023/09/17 04:22:43;;;;;;;9.57;8.77;;;;;;;;;;4970618;28;20058;-72
2023/09/17 04:25:09;;;;;;;10.00;9.13;;;;;;;;;;4938639;28;20048;-73
2023/09/17 04:27:37;;;;;;;11.15;10.05;;;;;;;;;;4954613;28;20479;-74
2023/09/17 04:30:05;;;;;;;10.13;9.23;;;;;;;;;;4971487;28;20130;-74
2023/09/17 04:32:37;;;;;;;8.93;8.25;;;;;;;;;;4939097;28;20042;-74
2023/09/17 04:35:05;;;;;;;9.88;8.90;;;;;;;;;;4954569;28;20046;-73
2023/09/17 04:37:32;;;;;;;9.88;8.98;;;;;;;;;;4954397;28;20051;-73
2023/09/17 04:39:58;;;;;;;10.20;9.50;;;;;;;;;;4971378;28;20510;-73
2023/09/17 04:42:24;;;;;;;10.32;9.43;;;;;;;;;;4970276;28;20039;-73
2023/09/17 04:44:51;;;;;;;9.52;8.70;;;;;;;;;;4954100;28;20572;-74
2023/09/17 04:47:17;;;;;;;11.90;9.30;;;;;;;;;;4954272;28;20043;-73
2023/09/17 04:49:43;;;;;;;9.23;8.32;;;;;;;;;;4954166;28;20046;-73
2023/09/17 04:52:10;;;;;;;9.85;9.02;;;;;;;;;;4923333;28;20042;-73
2023/09/17 04:54:40;;;;;;;10.75;9.82;;;;;;;;;;4923353;28;20050;-73
2023/09/17 04:57:07;;;;;;;9.98;8.82;;;;;;;;;;4954329;28;20047;-73
2023/09/17 04:59:33;;;;;;;10.02;9.02;;;;;;;;;;4970160;28;20043;-74
2023/09/17 05:02:00;;;;;;;10.00;8.75;;;;;;;;;;4954514;28;20062;-73
2023/09/17 05:04:26;;;;;;;11.13;9.98;;;;;;;;;;4938391;28;20031;-74
2023/09/17 05:06:53;;;;;;;12.90;9.45;;;;;;;;;;4970222;28;20057;-74
2023/09/17 05:09:19;;;;;;;10.75;9.65;;;;;;;;;;4970420;28;20043;-73
2023/09/17 05:11:45;;;;;;;11.25;10.13;;;;;;;;;;4954048;28;20058;-74
2023/09/17 05:14:11;;;;;;;11.85;10.38;;;;;;;;;;4971759;28;20889;-74
2023/09/17 05:16:41;;;;;;;12.40;11.13;;;;;;;;;;4938530;28;20050;-74
2023/09/17 05:19:07;;;;;;;13.00;11.10;;;;;;;;;;4938207;28;20049;-74
2023/09/17 05:21:33;;;;;;;14.73;11.88;;;;;;;;;;4935033;29;20141;-73
2023/09/17 05:24:00;;;;;;;17.45;11.85;;;;;;;;;;4951574;29;20519;-76
2023/09/17 05:26:26;;;;;;;12.57;11.15;;;;;;;;;;4954601;29;20058;-74
2023/09/17 05:28:54;;;;;;;13.60;12.20;;;;;;;;;;4942440;29;20126;-74
2023/09/17 05:31:20;;;;;;;14.52;12.70;;;;;;;;;;4957438;29;20077;-74
2023/09/17 05:33:46;;;;;;;13.25;11.95;;;;;;;;;;4954848;29;20078;-74
2023/09/17 05:36:13;;;;;;;13.25;12.00;;;;;;;;;;4934967;29;20135;-74
2023/09/17 05:38:39;;;;;;;11.65;10.55;;;;;;;;;;4934439;29;20077;-74
2023/09/17 05:41:05;;;;;;;13.20;11.98;;;;;;;;;;4951368;29;20154;-74
2023/09/17 05:43:32;;;;;;;16.55;14.65;;;;;;;;;;4934342;29;20046;-75
2023/09/17 05:45:58;;;;;;;14.88;11.70;;;;;;;;;;4950983;29;20471;-75
2023/09/17 05:48:32;;;;;;;14.55;12.90;;;;;;;;;;4934351;29;20684;-74
2023/09/17 05:50:59;;;;;;;17.05;12.48;;;;;;;;;;4950790;29;20051;-73
2023/09/17 05:53:28;;;;;;;12.82;11.63;;;;;;;;;;4949570;28;20055;-73
2023/09/17 05:55:54;;;;;;;13.73;12.32;;;;;;;;;;4946405;28;20055;-75
2023/09/17 05:58:20;;;;;;;11.75;10.63;;;;;;;;;;4952965;28;20046;-73
2023/09/17 06:00:47;;;;;;;10.90;9.95;;;;;;;;;;4952808;28;20038;-74
2023/09/17 06:03:13;;;;;;;11.60;10.02;;;;;;;;;;4949946;28;20427;-74
2023/09/17 06:05:40;;;;;;;16.85;10.07;;;;;;;;;;4941519;28;20050;-75
2023/09/17 06:08:06;;;;;;;13.57;10.43;;;;;;;;;;4951044;28;20521;-74
2023/09/17 06:10:32;;;;;;;12.20;10.70;;;;;;;;;;4970682;28;20403;-74
2023/09/17 06:12:58;;;;;;;12.52;10.77;;;;;;;;;;4969210;28;20057;-73
2023/09/17 06:15:25;;;;;;;11.98;10.65;;;;;;;;;;4969931;28;20102;-74
2023/09/17 06:17:51;;;;;;;16.80;11.48;;;;;;;;;;4952542;28;20047;-73
2023/09/17 06:20:17;;;;;;;11.45;10.43;;;;;;;;;;4967101;28;20043;-74
2023/09/17 06:22:45;;;;;;;11.88;10.80;;;;;;;;;;4949726;28;20038;-74
2023/09/17 06:25:12;;;;;;;16.48;11.25;;;;;;;;;;4935534;28;20043;-74
2023/09/17 06:27:38;;;;;;;12.10;10.75;;;;;;;;;;4953837;28;20454;-72
2023/09/17 06:30:05;;;;;;;15.10;10.90;;;;;;;;;;4950954;28;20078;-73
2023/09/17 06:32:32;;;;;;;15.73;11.13;;;;;;;;;;4936871;28;20133;-74
2023/09/17 06:34:58;;;;;;;17.40;11.52;;;;;;;;;;4938746;28;20348;-74
2023/09/17 06:37:24;;;;;;;15.18;11.40;;;;;;;;;;4971777;28;20047;-74
2023/09/17 06:39:51;;;;;;;12.20;11.02;;;;;;;;;;4955806;28;20046;-75
2023/09/17 06:42:17;;;;;;;13.75;10.30;;;;;;;;;;4956906;28;20617;-75
2023/09/17 06:44:44;;;;;;;15.60;10.00;;;;;;;;;;4974099;28;20057;-75
2023/09/17 06:47:10;;;;;;;9.32;8.52;;;;;;;;;;4973507;28;20049;-73
2023/09/17 06:49:35;;;;;;;10.85;9.95;;;;;;;;;;4973621;28;20050;-74
2023/09/17 06:52:02;;;;;;;12.48;10.00;;;;;;;;;;4972975;28;20043;-73
2023/09/17 06:54:28;;;;;;;10.38;9.35;;;;;;;;;;4978450;28;20078;-75
2023/09/17 06:56:54;;;;;;;12.23;9.00;;;;;;;;;;4972387;28;20098;-75
2023/09/17 06:59:20;;;;;;;11.07;9.60;;;;;;;;;;4973736;28;20415;-75
2023/09/17 07:01:47;;;;;;;10.52;8.88;;;;;;;;;;4973646;28;20047;-76
2023/09/17 07:04:13;;;;;;;9.95;8.95;;;;;;;;;;4955521;28;20037;-77
2023/09/17 07:06:39;;;;;;;12.25;9.18;;;;;;;;;;4960133;28;20698;-73
2023/09/17 07:09:05;;;;;;;10.50;8.55;;;;;;;;;;4955716;28;20031;-75
2023/09/17 07:11:31;;;;;;;8.73;7.85;;;;;;;;;;4970571;28;20065;-74
2023/09/17 07:14:04;;;;;;;6.15;5.63;;;;;;;;;;4989882;28;21047;-77
2023/09/17 07:16:31;;;;;;;7.25;5.60;;;;;;;;;;4993300;28;20100;-78
2023/09/17 07:19:00;;;;;;;7.03;6.15;;;;;;;;;;4989142;28;20116;-77
2023/09/17 07:21:26;;;;;;;5.82;5.25;;;;;;;;;;4956278;28;20046;-77
2023/09/17 07:23:52;;;;;;;5.03;4.63;;;;;;;;;;4973344;28;20045;-77
2023/09/17 07:26:20;;;;;;;4.40;4.05;;;;;;;;;;4972283;28;20105;-77
2023/09/17 07:28:48;;;;;;;4.13;3.72;;;;;;;;;;4972794;28;20042;-78
2023/09/17 07:31:14;;;;;;;7.82;3.92;;;;;;;;;;4981988;28;20214;-76
2023/09/17 07:33:42;;;;;;;4.97;3.97;;;;;;;;;;4974830;28;20038;-77
2023/09/17 07:36:09;;;;;;;4.75;3.10;;;;;;;;;;4962476;28;20538;-74
2023/09/17 07:38:35;;;;;;;6.47;3.63;;;;;;;;;;4936927;28;20463;-74
2023/09/17 07:41:02;;;;;;;3.72;3.33;;;;;;;;;;4970753;28;20043;-73
2023/09/17 07:43:28;;;;;;;4.43;2.95;;;;;;;;;;4971767;28;20043;-73
2023/09/17 07:45:54;;;;;;;3.58;3.28;;;;;;;;;;4971654;28;20046;-73
2023/09/17 07:48:23;;;;;;;3.45;3.20;;;;;;;;;;4972381;28;20043;-74
2023/09/17 07:50:59;;;;;;;3.22;3.03;;;;;;;;;;4970556;28;20539;-74
2023/09/17 07:53:25;;;;;;;5.22;2.95;;;;;;;;;;4954771;28;20050;-73
2023/09/17 07:55:51;;;;;;;7.47;3.60;;;;;;;;;;4972012;28;20084;-74
2023/09/17 07:58:17;;;;;;;5.80;3.50;;;;;;;;;;4972903;28;20045;-76
2023/09/17 08:00:45;;;;;;;4.43;3.25;;;;;;;;;;4955183;28;20095;-75
2023/09/17 08:03:18;;;;;;;9.40;3.40;;;;;;;;;;4939660;28;20511;-74
2023/09/17 08:05:45;;;;;;;4.00;3.35;;;;;;;;;;4970940;28;20502;-75
2023/09/17 08:08:11;;;;;;;4.47;3.80;;;;;;;;;;4971981;28;20601;-74
2023/09/17 08:10:37;;;;;;;4.00;3.70;;;;;;;;;;4971993;28;20130;-75
2023/09/17 08:13:03;;;;;;;6.05;3.40;;;;;;;;;;4971572;28;20064;-78
2023/09/17 08:15:30;;;;;;;4.35;3.17;;;;;;;;;;4972482;28;20045;-78
2023/09/17 08:17:56;;;;;;;4.05;3.55;;;;;;;;;;4938812;28;20038;-78
2023/09/17 08:20:22;;;;;;;4.32;3.28;;;;;;;;;;4954164;28;20538;-74
2023/09/17 08:22:51;;;;;;;7.53;4.32;;;;;;;;;;4970621;28;20560;-74
2023/09/17 08:25:36;;;;;;;4.40;4.00;;;;;;;;;;4954507;28;20105;-77
2023/09/17 08:28:22;;;;;;;6.60;4.68;;;;;;;;;;4971250;28;20103;-76
2023/09/17 08:31:08;;;;;;;6.78;4.03;;;;;;;;;;4957651;28;20841;-78
2023/09/17 08:33:54;;;;;;;6.10;4.30;;;;;;;;;;4972278;28;20589;-78
2023/09/17 08:36:27;;;;;;;4.90;4.38;;;;;;;;;;4953878;28;20050;-79
2023/09/17 08:38:54;;;;;;;7.70;4.90;;;;;;;;;;4968553;28;20129;-78
2023/09/17 08:41:22;;;;;;;5.53;5.00;;;;;;;;;;4970078;28;20066;-77
2023/09/17 08:43:52;;;;;;;5.32;4.40;;;;;;;;;;4970914;28;20046;-79
2023/09/17 08:46:18;;;;;;;6.10;4.60;;;;;;;;;;4953661;28;20093;-78
2023/09/17 08:48:44;;;;;;;5.53;4.70;;;;;;;;;;4971270;28;20043;-78
2023/09/17 08:51:11;;;;;;;5.50;4.68;;;;;;;;;;4954110;28;20055;-78
2023/09/17 08:53:42;;;;;;;4.43;4.07;;;;;;;;;;4955066;28;20141;-78
2023/09/17 08:56:08;;;;;;;6.78;4.90;;;;;;;;;;4945480;29;20134;-79
2023/09/17 08:58:38;;;;;;;7.03;4.70;;;;;;;;;;4936068;29;20062;-78
2023/09/17 09:01:06;;;;;;;5.60;5.00;;;;;;;;;;4951883;29;20046;-78
2023/09/17 09:03:33;;;;;;;6.78;5.07;;;;;;;;;;4935965;29;20051;-78
2023/09/17 09:06:00;;;;;;;7.03;4.95;;;;;;;;;;4951715;29;20054;-79
2023/09/17 09:08:26;;;;;;;6.60;5.10;;;;;;;;;;4949891;28;20055;-78
2023/09/17 09:10:52;;;;;;;8.25;5.38;;;;;;;;;;4938692;28;20059;-79
2023/09/17 09:13:18;;;;;;;9.07;5.75;;;;;;;;;;4972367;28;20046;-78
2023/09/17 09:15:47;;;;;;;6.07;5.40;;;;;;;;;;4939166;28;20048;-78
2023/09/17 09:18:13;;;;;;;7.35;5.88;;;;;;;;;;4972034;28;20050;-78
2023/09/17 09:20:40;;;;;;;10.35;5.75;;;;;;;;;;4970865;28;20050;-79
2023/09/17 09:23:07;;;;;;;6.03;5.43;;;;;;;;;;4939251;28;20081;-80
2023/09/17 09:25:33;;;;;;;7.03;5.25;;;;;;;;;;4970886;28;20121;-79
2023/09/17 09:28:00;;;;;;;5.20;4.68;;;;;;;;;;4938325;28;20093;-79
2023/09/17 09:30:26;;;;;;;6.20;5.72;;;;;;;;;;4971574;28;20050;-79
2023/09/17 09:32:52;;;;;;;7.45;4.50;;;;;;;;;;4970332;28;20076;-79
2023/09/17 09:35:19;;;;;;;7.60;5.25;;;;;;;;;;4954315;28;20602;-79
2023/09/17 09:37:45;;;;;;;5.70;5.07;;;;;;;;;;4954122;28;20138;-79
2023/09/17 09:40:11;;;;;;;5.00;4.50;;;;;;;;;;4971607;28;20062;-78
2023/09/17 09:42:38;;;;;;;6.18;4.65;;;;;;;;;;4938398;28;20042;-79
2023/09/17 09:45:04;;;;;;;4.68;4.28;;;;;;;;;;4971266;28;20077;-79
2023/09/17 09:47:30;;;;;;;7.65;3.97;;;;;;;;;;4954785;28;20039;-79
2023/09/17 09:49:56;;;;;;;4.63;4.22;;;;;;;;;;4953936;28;20045;-79
2023/09/17 09:52:24;;;;;;;3.97;3.70;;;;;;;;;;4972356;28;20050;-78
2023/09/17 09:54:50;;;;;;;5.55;3.78;;;;;;;;;;4955421;28;20031;-78
2023/09/17 09:57:18;;;;;;;6.35;4.25;;;;;;;;;;4970279;28;20085;-79
2023/09/17 09:59:47;;;;;;;4.78;4.38;;;;;;;;;;4953892;28;20043;-78
2023/09/17 10:02:15;;;;;;;6.47;3.63;;;;;;;;;;4922956;28;20046;-78
2023/09/17 10:04:42;;;;;;;4.05;3.70;;;;;;;;;;4971086;28;20046;-79
2023/09/17 10:07:08;;;;;;;6.05;3.30;;;;;;;;;;4955562;28;20061;-79
2023/09/17 10:09:34;;;;;;;4.15;3.78;;;;;;;;;;4958142;28;20034;-79
2023/09/17 10:12:01;;;;;;;4.82;3.40;;;;;;;;;;4974987;28;20629;-78
2023/09/17 10:14:27;;;;;;;3.72;3.42;;;;;;;;;;4941992;28;20046;-79
2023/09/17 10:16:54;;;;;;;3.67;3.25;;;;;;;;;;4975602;28;20129;-78
2023/09/17 10:19:21;;;;;;;4.28;3.22;;;;;;;;;;4975417;28;20038;-78
2023/09/17 10:21:47;;;;;;;3.55;3.25;;;;;;;;;;4957769;28;20073;-79
2023/09/17 10:24:17;;;;;;;5.20;3.35;;;;;;;;;;4957344;28;20039;-78
2023/09/17 10:26:43;;;;;;;3.33;3.10;;;;;;;;;;4957284;28;20039;-78
2023/09/17 10:29:10;;;;;;;3.65;3.35;;;;;;;;;;4965341;28;20086;-78
2023/09/17 10:31:37;;;;;;;3.20;3.00;;;;;;;;;;4975095;28;20058;-78
2023/09/17 10:34:04;;;;;;;3.80;3.50;;;;;;;;;;4958080;28;20047;-78
2023/09/17 10:36:31;;;;;;;3.53;3.33;;;;;;;;;;4958495;28;20039;-79
2023/09/17 10:38:59;;;;;;;3.83;3.50;;;;;;;;;;4974644;28;20042;-78
2023/09/17 10:41:27;;;;;;;3.92;3.53;;;;;;;;;;4961294;28;20133;-78
2023/09/17 10:43:54;;;;;;;3.53;3.22;;;;;;;;;;4982402;28;20039;-78
2023/09/17 10:46:20;;;;;;;3.78;3.47;;;;;;;;;;5001224;28;20080;-77
2023/09/17 10:48:47;;;;;;;4.93;3.65;;;;;;;;;;4986558;28;20222;-78
2023/09/17 10:51:13;;;;;;;4.43;4.07;;;;;;;;;;4992493;28;20185;-79
2023/09/17 10:53:39;;;;;;;3.45;3.15;;;;;;;;;;4990332;28;20054;-77
2023/09/17 10:56:08;;;;;;;3.88;3.67;;;;;;;;;;4974821;28;20069;-77
2023/09/17 10:58:38;;;;;;;3.60;3.30;;;;;;;;;;4942506;28;20097;-78
2023/09/17 11:01:06;;;;;;;3.87;3.57;;;;;;;;;;4974326;28;20050;-77
2023/09/17 11:03:33;;;;;;;4.32;3.10;;;;;;;;;;4957965;28;20106;-78
2023/09/17 11:05:59;;;;;;;3.95;3.65;;;;;;;;;;4974222;28;20042;-78
2023/09/17 11:08:25;;;;;;;3.50;3.30;;;;;;;;;;4974591;28;20043;-77
2023/09/17 11:10:51;;;;;;;3.30;3.00;;;;;;;;;;4957019;28;20113;-78
2023/09/17 11:13:17;;;;;;;3.75;3.40;;;;;;;;;;4974242;28;20043;-77
2023/09/17 11:15:43;;;;;;;4.25;3.38;;;;;;;;;;4940770;28;20113;-77
2023/09/17 11:18:10;;;;;;;3.28;3.00;;;;;;;;;;4955686;28;20530;-77
2023/09/17 11:21:09;;;;;;;3.80;3.50;;;;;;;;;;4956514;28;20042;-77
2023/09/17 11:23:45;;;;;;;6.10;3.13;;;;;;;;;;4914616;28;20042;-77
2023/09/17 11:26:15;;;;;;;5.28;3.70;;;;;;;;;;4937666;28;20043;-77
2023/09/17 11:28:41;;;;;;;3.53;3.22;;;;;;;;;;4956013;28;20041;-77
2023/09/17 11:31:13;;;;;;;3.70;3.40;;;;;;;;;;4950184;28;20515;-78
2023/09/17 11:33:39;;;;;;;3.63;3.35;;;;;;;;;;4950938;28;20046;-78
2023/09/17 11:36:10;;;;;;;3.90;3.60;;;;;;;;;;4973050;28;20129;-78
2023/09/17 11:38:36;;;;;;;3.45;3.20;;;;;;;;;;4973439;28;20486;-78
2023/09/17 11:41:06;;;;;;;3.83;3.53;;;;;;;;;;4972710;28;20137;-78
2023/09/17 11:43:36;;;;;;;3.50;3.20;;;;;;;;;;4970283;28;20467;-77
2023/09/17 11:46:04;;;;;;;4.88;2.80;;;;;;;;;;4973029;28;20137;-77
2023/09/17 11:48:34;;;;;;;4.40;2.88;;;;;;;;;;4940064;28;20038;-78
2023/09/17 11:51:16;;;;;;;3.25;2.95;;;;;;;;;;4955693;28;20545;-77
2023/09/17 11:54:01;;;;;;;3.47;3.10;;;;;;;;;;4971899;28;20039;-78
2023/09/17 11:56:28;;;;;;;3.40;3.10;;;;;;;;;;4955197;28;20054;-78
2023/09/17 11:59:03;;;;;;;4.95;3.13;;;;;;;;;;4955881;28;20034;-78
2023/09/17 12:01:33;;;;;;;4.43;2.90;;;;;;;;;;4979522;28;20514;-78
2023/09/17 12:03:59;;;;;;;3.05;2.60;;;;;;;;;;4979535;28;20117;-78
2023/09/17 12:06:26;;;;;;;3.38;3.17;;;;;;;;;;4955530;28;20489;-77
2023/09/17 12:08:52;;;;;;;3.42;3.20;;;;;;;;;;4955749;28;20039;-77
2023/09/17 12:11:24;;;;;;;3.58;2.88;;;;;;;;;;4987599;28;20145;-77
2023/09/17 12:13:53;;;;;;;3.17;2.97;;;;;;;;;;4972720;28;20049;-77
2023/09/17 12:16:21;;;;;;;4.65;3.05;;;;;;;;;;4971657;28;20038;-78
2023/09/17 12:18:50;;;;;;;;;;;;;;;;;;4969432;28;20125;-77
2023/09/17 12:21:16;;;;;;;3.85;3.00;;;;;;;;;;4954995;28;20000;-78
2023/09/17 12:23:56;;;;;;;4.05;2.78;;;;;;;;;;4949904;28;20483;-77
2023/09/17 12:26:36;;;;;;;3.13;2.80;;;;;;;;;;4979101;28;20128;-77
2023/09/17 12:29:08;;;;;;;3.00;2.50;;;;;;;;;;4972957;28;20058;-78
2023/09/17 12:31:36;;;;;;;3.70;2.80;;;;;;;;;;4972628;28;20054;-77
2023/09/17 12:34:06;;;;;;;2.70;2.47;;;;;;;;;;4972813;28;20134;-77
2023/09/17 12:36:32;;;;;;;2.85;2.65;;;;;;;;;;4972124;28;20384;-77
2023/09/17 12:38:58;;;;;;;3.45;2.90;;;;;;;;;;4972040;28;20042;-77
2023/09/17 12:41:24;;;;;;;3.97;3.33;;;;;;;;;;4971810;28;20061;-77
2023/09/17 12:43:50;;;;;;;3.25;2.97;;;;;;;;;;4971949;28;20406;-78
2023/09/17 12:46:16;;;;;;;4.47;2.88;;;;;;;;;;4953924;28;20090;-77
2023/09/17 12:48:42;;;;;;;3.30;3.10;;;;;;;;;;4978612;28;20117;-76
2023/09/17 12:51:08;;;;;;;3.55;3.17;;;;;;;;;;4971714;28;20075;-78
2023/09/17 12:53:35;;;;;;;10.02;3.85;;;;;;;;;;4971586;28;20499;-78
2023/09/17 12:56:01;;;;;;;3.25;3.00;;;;;;;;;;4972005;28;20192;-77
2023/09/17 12:58:30;;;;;;;4.72;4.40;;;;;;;;;;4939251;28;20043;-79
2023/09/17 13:01:05;;;;;;;6.20;3.55;;;;;;;;;;4962311;28;20043;-78
2023/09/17 13:03:31;;;;;;;3.28;2.67;;;;;;;;;;4978508;28;20042;-78
2023/09/17 13:05:57;;;;;;;3.60;3.30;;;;;;;;;;4971500;28;20039;-78
2023/09/17 13:08:25;;;;;;;4.10;3.63;;;;;;;;;;4971287;28;20043;-78
2023/09/17 13:10:54;;;;;;;3.53;3.22;;;;;;;;;;4953917;28;20054;-77
2023/09/17 13:13:20;;;;;;;3.40;3.20;;;;;;;;;;4971237;28;20384;-77
2023/09/17 13:15:46;;;;;;;4.68;3.35;;;;;;;;;;4961755;28;20031;-77
2023/09/17 13:18:12;;;;;;;3.63;3.42;;;;;;;;;;4962074;28;20530;-78
2023/09/17 13:20:38;;;;;;;3.65;3.35;;;;;;;;;;4953573;28;20038;-77
2023/09/17 13:23:04;;;;;;;3.92;3.17;;;;;;;;;;4971740;28;20057;-77
2023/09/17 13:25:30;;;;;;;5.60;3.53;;;;;;;;;;4954266;28;20035;-78
2023/09/17 13:27:56;;;;;;;4.72;3.53;;;;;;;;;;4954255;28;20041;-77
2023/09/17 13:30:22;;;;;;;4.85;3.30;;;;;;;;;;4971785;28;20133;-77
2023/09/17 13:32:48;;;;;;;3.53;3.15;;;;;;;;;;4938321;28;20055;-78
2023/09/17 13:35:18;;;;;;;3.90;3.60;;;;;;;;;;4954194;28;20142;-77
2023/09/17 13:37:44;;;;;;;5.13;3.60;;;;;;;;;;4938660;28;20482;-77
2023/09/17 13:40:10;;;;;;;5.82;4.00;;;;;;;;;;4954268;28;20065;-77
2023/09/17 13:42:36;;;;;;;4.22;3.60;;;;;;;;;;4970259;28;20078;-78
2023/09/17 13:45:02;;;;;;;3.72;3.47;;;;;;;;;;4973067;28;20514;-77
2023/09/17 13:47:33;;;;;;;4.45;4.07;;;;;;;;;;4973656;28;20035;-77
2023/09/17 13:50:00;;;;;;;5.07;4.30;;;;;;;;;;4958506;28;20043;-78
2023/09/17 13:52:26;;;;;;;4.95;4.45;;;;;;;;;;4965803;28;20106;-77
2023/09/17 13:54:53;;;;;;;4.80;4.38;;;;;;;;;;4980851;28;20066;-78
2023/09/17 13:57:19;;;;;;;5.25;3.83;;;;;;;;;;4954602;28;20047;-78
2023/09/17 13:59:44;;;;;;;8.75;4.30;;;;;;;;;;4971220;28;20130;-77
2023/09/17 14:02:12;;;;;;;4.88;4.40;;;;;;;;;;4971111;28;20183;-77
2023/09/17 14:04:38;;;;;;;6.38;3.88;;;;;;;;;;4971195;28;20051;-77
2023/09/17 14:07:04;;;;;;;3.92;3.63;;;;;;;;;;4953722;28;20117;-77
2023/09/17 14:09:30;;;;;;;5.65;4.05;;;;;;;;;;4969703;28;20051;-77
2023/09/17 14:11:56;;;;;;;4.22;3.83;;;;;;;;;;4953685;28;20047;-78
2023/09/17 14:14:22;;;;;;;4.13;3.28;;;;;;;;;;4937998;28;20071;-77
2023/09/17 14:16:49;;;;;;;5.72;3.40;;;;;;;;;;4937733;28;20042;-77
2023/09/17 14:19:17;;;;;;;7.47;3.50;;;;;;;;;;4952838;28;20038;-78
2023/09/17 14:21:44;;;;;;;4.35;3.40;;;;;;;;;;4969207;28;20035;-77
2023/09/17 14:24:10;;;;;;;3.67;3.28;;;;;;;;;;4952833;28;20063;-78
2023/09/17 14:26:36;;;;;;;7.15;3.35;;;;;;;;;;4974633;28;20038;-77
2023/09/17 14:29:03;;;;;;;7.80;3.08;;;;;;;;;;4967336;28;20065;-78
2023/09/17 14:31:29;;;;;;;3.65;3.35;;;;;;;;;;4953388;28;20050;-79